createdAt,value
2019-04-27T00:02:03.690Z,18.57
2019-04-27T00:04:52.844Z,19.03
2019-04-27T00:07:59.341Z,21.30
2019-04-27T00:10:30.845Z,18.90
2019-04-27T00:13:02.197Z,19.60
2019-04-27T00:15:47.298Z,17.93
2019-04-27T00:18:56.446Z,16.80
2019-04-27T00:21:35.014Z,14.93
2019-04-27T00:24:04.023Z,18.40
2019-04-27T00:26:33.503Z,17.67
2019-04-27T00:29:03.739Z,20.77
2019-04-27T00:31:33.734Z,20.40
2019-04-27T00:34:03.661Z,22.17
2019-04-27T00:36:43.513Z,19.47
2019-04-27T00:39:25.180Z,23.50
2019-04-27T00:41:53.860Z,26.70
2019-04-27T00:44:23.701Z,24.47
2019-04-27T00:46:53.392Z,26.23
2019-04-27T00:49:23.874Z,28.13
2019-04-27T00:51:53.613Z,31.23
2019-04-27T00:54:23.783Z,30.87
2019-04-27T00:57:03.211Z,35.30
2019-04-27T00:59:51.056Z,31.23
2019-04-27T01:02:37.143Z,34.23
2019-04-27T01:05:10.742Z,30.13
2019-04-27T01:07:39.379Z,32.60
2019-04-27T01:10:08.117Z,31.63
2019-04-27T01:12:36.762Z,32.07
2019-04-27T01:15:06.495Z,26.43
2019-04-27T01:17:35.490Z,30.77
2019-04-27T01:20:04.995Z,29.03
2019-04-27T01:22:33.987Z,28.30
2019-04-27T01:25:02.898Z,31.90
2019-04-27T01:27:44.469Z,30.70
2019-04-27T01:30:28.846Z,29.20
2019-04-27T01:32:57.927Z,30.97
2019-04-27T01:35:28.850Z,28.37
2019-04-27T01:37:58.949Z,29.73
2019-04-27T01:40:29.497Z,28.63
2019-04-27T01:42:58.880Z,23.37
2019-04-27T01:45:28.973Z,27.73
2019-04-27T01:47:59.568Z,25.70
2019-04-27T01:50:29.024Z,21.53
2019-04-27T01:52:58.713Z,20.27
2019-04-27T01:55:29.734Z,21.90
2019-04-27T01:57:58.711Z,20.60
2019-04-27T02:00:50.492Z,24.23
2019-04-27T02:03:22.898Z,20.40
2019-04-27T02:05:56.059Z,20.37
2019-04-27T02:08:24.786Z,20.00
2019-04-27T02:10:53.787Z,19.40
2019-04-27T02:13:22.417Z,19.47
2019-04-27T02:15:51.068Z,19.47
2019-04-27T02:18:20.054Z,16.60
2019-04-27T02:20:49.232Z,17.03
2019-04-27T02:23:19.240Z,18.03
2019-04-27T02:25:49.669Z,18.30
2019-04-27T02:28:29.580Z,17.43
2019-04-27T02:31:19.379Z,17.83
2019-04-27T02:33:55.700Z,17.40
2019-04-27T02:36:24.704Z,17.60
2019-04-27T02:38:53.684Z,16.50
2019-04-27T02:41:22.671Z,17.47
2019-04-27T02:44:01.772Z,17.83
2019-04-27T02:46:31.480Z,17.10
2019-04-27T02:49:06.483Z,18.13
2019-04-27T02:51:53.776Z,17.93
2019-04-27T02:54:22.666Z,17.87
2019-04-27T02:56:52.825Z,17.80
2019-04-27T02:59:21.708Z,17.80
2019-04-27T03:02:05.822Z,18.03
2019-04-27T03:04:35.026Z,14.97
2019-04-27T03:07:03.655Z,14.53
2019-04-27T03:09:32.601Z,14.63
2019-04-27T03:12:03.128Z,13.77
2019-04-27T03:14:54.457Z,12.20
2019-04-27T03:17:31.326Z,11.00
2019-04-27T03:20:19.952Z,11.03
2019-04-27T03:22:52.660Z,10.97
2019-04-27T03:25:32.496Z,11.13
2019-04-27T03:28:10.911Z,10.07
2019-04-27T03:30:42.639Z,9.50
2019-04-27T03:33:12.244Z,8.33
2019-04-27T03:35:43.345Z,7.97
2019-04-27T03:38:12.519Z,6.83
2019-04-27T03:40:42.139Z,5.80
2019-04-27T03:43:19.955Z,5.10
2019-04-27T03:45:49.709Z,5.00
2019-04-27T03:48:20.380Z,4.27
2019-04-27T03:50:56.588Z,3.70
2019-04-27T03:53:34.045Z,3.60
2019-04-27T03:56:15.061Z,3.27
2019-04-27T03:58:49.497Z,2.10
2019-04-27T04:01:20.295Z,2.30
2019-04-27T04:03:50.098Z,1.80
2019-04-27T04:06:19.800Z,2.13
2019-04-27T04:08:50.566Z,1.80
2019-04-27T04:11:25.160Z,2.23
2019-04-27T04:14:00.116Z,1.77
2019-04-27T04:16:39.464Z,1.70
2019-04-27T04:19:09.782Z,2.10
2019-04-27T04:21:40.083Z,1.70
2019-04-27T04:24:11.944Z,1.97
2019-04-27T04:26:40.392Z,1.70
2019-04-27T04:29:10.529Z,1.87
2019-04-27T04:31:40.403Z,2.60
2019-04-27T04:34:12.142Z,2.20
2019-04-27T04:36:42.698Z,2.00
2019-04-27T04:39:12.550Z,2.07
2019-04-27T04:42:00.894Z,1.90
2019-04-27T04:44:50.294Z,2.67
2019-04-27T04:47:36.335Z,2.43
2019-04-27T04:50:10.810Z,3.00
2019-04-27T04:52:36.606Z,3.17
2019-04-27T04:55:05.907Z,2.60
2019-04-27T04:57:34.520Z,3.10
2019-04-27T05:00:03.153Z,3.10
2019-04-27T05:02:32.069Z,3.20
2019-04-27T05:05:01.375Z,3.87
2019-04-27T05:07:30.266Z,3.90
2019-04-27T05:09:58.883Z,3.83
2019-04-27T05:12:28.788Z,4.10
2019-04-27T05:14:59.079Z,4.10
2019-04-27T05:17:29.628Z,3.93
2019-04-27T05:19:59.059Z,4.33
2019-04-27T05:22:29.616Z,4.93
2019-04-27T05:25:01.204Z,4.00
2019-04-27T05:27:31.201Z,4.07
2019-04-27T05:30:00.622Z,4.10
2019-04-27T05:32:29.662Z,4.10
2019-04-27T05:34:59.602Z,4.10
2019-04-27T05:37:31.580Z,3.50
2019-04-27T05:39:59.695Z,4.10
2019-04-27T05:42:28.974Z,3.93
2019-04-27T05:45:06.940Z,4.33
2019-04-27T05:48:00.785Z,4.63
2019-04-27T05:50:36.442Z,5.43
2019-04-27T05:53:00.291Z,5.70
2019-04-27T05:55:29.218Z,5.27
2019-04-27T05:57:59.167Z,6.17
2019-04-27T06:00:29.331Z,7.43
2019-04-27T06:02:59.124Z,7.40
2019-04-27T06:05:29.243Z,8.87
2019-04-27T06:07:58.923Z,9.50
2019-04-27T06:10:29.551Z,10.13
2019-04-27T06:12:59.813Z,14.47
2019-04-27T06:15:30.177Z,15.70
2019-04-27T06:17:59.630Z,17.63
2019-04-27T06:20:28.690Z,17.60
2019-04-27T06:22:58.859Z,19.87
2019-04-27T06:25:30.533Z,21.10
2019-04-27T06:27:59.338Z,22.37
2019-04-27T06:30:29.266Z,24.50
2019-04-27T06:32:59.435Z,24.10
2019-04-27T06:35:28.876Z,25.97
2019-04-27T06:37:58.569Z,26.23
2019-04-27T06:40:28.969Z,26.30
2019-04-27T06:42:59.477Z,26.70
2019-04-27T06:45:28.904Z,27.23
2019-04-27T06:47:59.582Z,26.43
2019-04-27T06:50:29.587Z,26.73
2019-04-27T06:52:59.126Z,29.03
2019-04-27T06:55:29.128Z,28.40
2019-04-27T06:57:58.961Z,26.83
2019-04-27T07:00:28.920Z,28.40
2019-04-27T07:02:59.549Z,29.13
2019-04-27T07:05:28.906Z,27.77
2019-04-27T07:07:59.095Z,28.10
2019-04-27T07:10:28.623Z,25.83
2019-04-27T07:12:59.715Z,29.63
2019-04-27T07:15:28.771Z,29.60
2019-04-27T07:17:58.603Z,28.07
2019-04-27T07:20:28.730Z,29.27
2019-04-27T07:22:59.491Z,30.80
2019-04-27T07:25:28.935Z,29.27
2019-04-27T07:27:59.195Z,28.93
2019-04-27T07:30:28.815Z,28.30
2019-04-27T07:32:58.866Z,27.43
2019-04-27T07:35:29.612Z,27.67
2019-04-27T07:37:59.020Z,26.60
2019-04-27T07:40:30.264Z,27.77
2019-04-27T07:43:06.079Z,29.63
2019-04-27T07:45:37.080Z,24.33
2019-04-27T07:48:06.004Z,25.57
2019-04-27T07:50:34.999Z,24.10
2019-04-27T07:53:04.204Z,23.23
2019-04-27T07:55:33.625Z,23.27
2019-04-27T07:58:04.958Z,25.17
2019-04-27T08:00:33.845Z,24.20
2019-04-27T08:03:02.842Z,23.60
2019-04-27T08:05:31.563Z,24.27
2019-04-27T08:08:00.518Z,23.53
2019-04-27T08:10:29.343Z,20.20
2019-04-27T08:12:59.689Z,19.13
2019-04-27T08:15:29.098Z,17.80
2019-04-27T08:17:59.200Z,18.70
2019-04-27T08:20:29.384Z,14.97
2019-04-27T08:22:59.794Z,12.43
2019-04-27T08:25:32.138Z,12.63
2019-04-27T08:28:18.867Z,12.10
2019-04-27T08:30:56.686Z,10.77
2019-04-27T08:33:25.328Z,9.87
2019-04-27T08:35:54.265Z,9.93
2019-04-27T08:38:23.567Z,10.20
2019-04-27T08:40:52.865Z,9.47
2019-04-27T08:43:21.754Z,8.27
2019-04-27T08:45:50.971Z,7.80
2019-04-27T08:48:33.436Z,6.27
2019-04-27T08:50:50.884Z,6.70
2019-04-27T08:53:19.511Z,5.87
2019-04-27T08:55:49.612Z,8.50
2019-04-27T08:58:21.243Z,6.50
2019-04-27T09:00:50.039Z,5.83
2019-04-27T09:03:19.415Z,7.07
2019-04-27T09:05:49.020Z,6.87
2019-04-27T09:08:36.768Z,9.37
2019-04-27T09:11:16.198Z,8.20
2019-04-27T09:14:22.575Z,8.63
2019-04-27T09:16:59.999Z,9.80
2019-04-27T09:19:39.347Z,10.87
2019-04-27T09:22:15.967Z,11.23
2019-04-27T09:24:39.792Z,9.43
2019-04-27T09:27:09.606Z,7.90
2019-04-27T09:29:39.455Z,8.70
2019-04-27T09:32:08.882Z,8.87
2019-04-27T09:34:38.007Z,8.93
2019-04-27T09:37:07.746Z,6.73
2019-04-27T09:39:36.697Z,6.97
2019-04-27T09:42:06.505Z,7.63
2019-04-27T09:44:37.144Z,7.47
2019-04-27T09:47:06.171Z,6.73
2019-04-27T09:49:36.668Z,6.40
2019-04-27T09:52:06.353Z,6.07
2019-04-27T09:54:36.583Z,5.13
2019-04-27T09:57:06.948Z,5.00
2019-04-27T09:59:37.787Z,5.50
2019-04-27T10:02:08.600Z,5.53
2019-04-27T10:04:37.892Z,6.00
2019-04-27T10:07:06.706Z,5.43
2019-04-27T10:09:36.868Z,5.03
2019-04-27T10:12:07.499Z,6.50
2019-04-27T10:14:36.665Z,4.80
2019-04-27T10:17:05.695Z,4.40
2019-04-27T10:19:36.385Z,4.57
2019-04-27T10:22:05.787Z,4.57
2019-04-27T10:24:35.803Z,5.40
2019-04-27T10:27:07.952Z,5.80
2019-04-27T10:29:36.945Z,5.30
2019-04-27T10:32:06.223Z,6.30
2019-04-27T10:34:35.749Z,5.27
2019-04-27T10:37:06.074Z,5.60
2019-04-27T10:39:36.080Z,6.50
2019-04-27T10:42:06.767Z,6.43
2019-04-27T10:44:35.960Z,6.70
2019-04-27T10:47:05.905Z,6.37
2019-04-27T10:49:34.938Z,7.13
2019-04-27T10:52:05.748Z,6.03
2019-04-27T10:54:34.413Z,7.20
2019-04-27T10:57:03.452Z,7.77
2019-04-27T10:59:32.346Z,9.40
2019-04-27T11:02:01.053Z,8.93
2019-04-27T11:05:00.900Z,8.53
2019-04-27T11:07:33.583Z,8.43
2019-04-27T11:10:02.200Z,9.57
2019-04-27T11:12:31.205Z,9.80
2019-04-27T11:15:00.194Z,20.07
2019-04-27T11:17:28.899Z,11.80
2019-04-27T11:19:57.786Z,12.17
2019-04-27T11:22:26.771Z,13.53
2019-04-27T11:24:56.378Z,11.87
2019-04-27T11:27:25.433Z,12.07
2019-04-27T11:29:54.142Z,13.20
2019-04-27T11:32:22.864Z,12.67
2019-04-27T11:35:16.459Z,12.83
2019-04-27T11:37:45.748Z,13.07
2019-04-27T11:40:14.609Z,13.40
2019-04-27T11:42:43.512Z,13.37
2019-04-27T11:45:12.603Z,13.07
2019-04-27T11:47:41.799Z,13.57
2019-04-27T11:50:11.312Z,13.10
2019-04-27T11:52:40.609Z,11.90
2019-04-27T11:55:09.687Z,14.37
2019-04-27T11:57:39.119Z,14.83
2019-04-27T12:00:09.327Z,15.60
2019-04-27T12:02:37.933Z,14.23
2019-04-27T12:05:07.996Z,15.17
2019-04-27T12:07:36.961Z,14.67
2019-04-27T12:10:06.662Z,16.03
2019-04-27T12:12:36.380Z,16.03
2019-04-27T12:15:05.888Z,15.77
2019-04-27T12:17:35.886Z,14.43
2019-04-27T12:20:05.788Z,15.07
2019-04-27T12:22:34.436Z,15.73
2019-04-27T12:25:03.579Z,15.63
2019-04-27T12:28:03.692Z,16.40
2019-04-27T12:30:43.492Z,15.27
2019-04-27T12:33:12.319Z,16.47
2019-04-27T12:35:41.646Z,17.07
2019-04-27T12:38:10.620Z,15.40
2019-04-27T12:40:39.530Z,16.03
2019-04-27T12:43:08.518Z,15.77
2019-04-27T12:45:40.297Z,15.33
2019-04-27T12:48:08.135Z,15.57
2019-04-27T12:50:37.105Z,15.87
2019-04-27T12:53:08.120Z,15.03
2019-04-27T12:56:11.271Z,15.57
2019-04-27T12:58:47.625Z,14.27
2019-04-27T13:01:17.856Z,15.73
2019-04-27T13:03:46.593Z,15.07
2019-04-27T13:06:15.311Z,13.80
2019-04-27T13:08:45.758Z,14.03
2019-04-27T13:11:16.162Z,13.60
2019-04-27T13:13:45.279Z,14.00
2019-04-27T13:16:14.273Z,13.53
2019-04-27T13:18:42.923Z,12.60
2019-04-27T13:21:11.546Z,11.47
2019-04-27T13:23:40.181Z,11.97
2019-04-27T13:26:09.226Z,11.93
2019-04-27T13:28:38.212Z,12.27
2019-04-27T13:31:07.532Z,12.80
2019-04-27T13:33:36.537Z,11.50
2019-04-27T13:36:07.481Z,11.07
2019-04-27T13:38:36.578Z,11.63
2019-04-27T13:41:09.548Z,11.27
2019-04-27T13:43:38.750Z,10.67
2019-04-27T13:46:18.989Z,10.57
2019-04-27T13:49:05.409Z,12.03
2019-04-27T13:51:57.496Z,10.90
2019-04-27T13:54:29.086Z,11.27
2019-04-27T13:56:56.998Z,10.53
2019-04-27T13:59:25.940Z,9.80
2019-04-27T14:01:54.569Z,10.20
2019-04-27T14:04:24.154Z,9.77
2019-04-27T14:06:53.213Z,9.90
2019-04-27T14:09:22.120Z,9.43
2019-04-27T14:11:54.808Z,9.27
2019-04-27T14:14:23.693Z,9.57
2019-04-27T14:16:52.332Z,9.37
2019-04-27T14:19:20.968Z,7.83
2019-04-27T14:21:49.620Z,8.27
2019-04-27T14:24:27.717Z,8.33
2019-04-27T14:26:48.686Z,8.47
2019-04-27T14:29:18.944Z,7.13
2019-04-27T14:31:49.724Z,7.17
2019-04-27T14:34:19.043Z,8.80
2019-04-27T14:36:48.862Z,8.20
2019-04-27T14:39:18.496Z,9.27
2019-04-27T14:41:49.077Z,9.93
2019-04-27T14:44:18.807Z,9.80
2019-04-27T14:46:48.531Z,10.00
2019-04-27T14:49:18.254Z,8.40
2019-04-27T14:51:48.602Z,9.73
2019-04-27T14:54:17.765Z,7.97
2019-04-27T14:56:48.775Z,5.50
2019-04-27T14:59:18.787Z,4.77
2019-04-27T15:01:48.769Z,4.30
2019-04-27T15:04:22.824Z,4.33
2019-04-27T15:06:51.810Z,4.10
2019-04-27T15:09:21.111Z,6.53
2019-04-27T15:11:53.611Z,4.17
2019-04-27T15:14:23.704Z,3.93
2019-04-27T15:16:52.668Z,4.40
2019-04-27T15:19:26.986Z,9.23
2019-04-27T15:21:58.976Z,6.63
2019-04-27T15:24:26.358Z,4.63
2019-04-27T15:26:59.018Z,4.37
2019-04-27T15:29:27.071Z,4.00
2019-04-27T15:32:03.157Z,4.60
2019-04-27T15:34:48.129Z,4.40
2019-04-27T15:37:35.428Z,4.40
2019-04-27T15:40:36.004Z,4.73
2019-04-27T15:43:22.945Z,4.57
2019-04-27T15:45:53.390Z,4.50
2019-04-27T15:48:25.071Z,5.00
2019-04-27T15:50:53.786Z,4.93
2019-04-27T15:53:26.011Z,5.90
2019-04-27T15:56:00.091Z,4.90
2019-04-27T15:58:26.178Z,5.83
2019-04-27T16:00:56.629Z,5.17
2019-04-27T16:03:27.311Z,4.50
2019-04-27T16:05:56.239Z,4.80
2019-04-27T16:08:25.221Z,5.03
2019-04-27T16:10:53.930Z,5.30
2019-04-27T16:13:22.572Z,5.17
2019-04-27T16:15:54.018Z,5.10
2019-04-27T16:18:24.490Z,4.60
2019-04-27T16:20:52.851Z,4.70
2019-04-27T16:23:21.849Z,4.47
2019-04-27T16:25:51.545Z,4.43
2019-04-27T16:28:20.564Z,4.30
2019-04-27T16:30:50.629Z,4.97
2019-04-27T16:33:23.382Z,3.90
2019-04-27T16:35:53.150Z,4.03
2019-04-27T16:38:38.784Z,3.77
2019-04-27T16:41:08.160Z,3.90
2019-04-27T16:43:38.521Z,3.30
2019-04-27T16:46:08.909Z,4.03
2019-04-27T16:48:39.006Z,3.60
2019-04-27T16:51:08.736Z,3.80
2019-04-27T16:53:41.154Z,4.00
2019-04-27T16:56:14.707Z,4.00
2019-04-27T16:58:40.166Z,4.57
2019-04-27T17:01:18.247Z,4.77
2019-04-27T17:03:48.461Z,4.60
2019-04-27T17:06:21.058Z,6.13
2019-04-27T17:08:49.674Z,8.43
2019-04-27T17:11:19.626Z,9.90
2019-04-27T17:13:52.940Z,10.50
2019-04-27T17:16:43.409Z,9.90
2019-04-27T17:19:43.745Z,11.57
2019-04-27T17:22:14.717Z,9.83
2019-04-27T17:24:46.413Z,10.20
2019-04-27T17:27:16.562Z,10.00
2019-04-27T17:29:42.535Z,13.10
2019-04-27T17:32:33.724Z,12.47
2019-04-27T17:35:05.016Z,10.40
2019-04-27T17:37:33.868Z,10.50
2019-04-27T17:40:03.002Z,10.17
2019-04-27T17:42:31.631Z,10.53
2019-04-27T17:45:00.608Z,9.57
2019-04-27T17:47:30.131Z,9.73
2019-04-27T17:49:58.973Z,4.43
2019-04-27T17:52:27.658Z,3.73
2019-04-27T17:54:56.554Z,3.80
2019-04-27T17:57:26.553Z,3.87
2019-04-27T18:00:03.156Z,4.30
2019-04-27T18:02:33.800Z,3.70
2019-04-27T18:05:00.373Z,3.50
2019-04-27T18:07:30.139Z,3.73
2019-04-27T18:09:58.983Z,3.97
2019-04-27T18:12:28.494Z,4.40
2019-04-27T18:14:58.173Z,4.60
2019-04-27T18:17:31.959Z,4.27
2019-04-27T18:20:02.976Z,4.87
2019-04-27T18:22:36.496Z,4.47
2019-04-27T18:25:09.685Z,4.53
2019-04-27T18:27:45.095Z,4.83
2019-04-27T18:30:28.089Z,5.27
2019-04-27T18:33:00.617Z,4.50
2019-04-27T18:35:29.678Z,6.00
2019-04-27T18:38:01.626Z,5.43
2019-04-27T18:40:32.052Z,6.67
2019-04-27T18:43:02.013Z,6.30
2019-04-27T18:45:31.728Z,6.80
2019-04-27T18:48:06.562Z,6.23
2019-04-27T18:50:48.403Z,8.60
2019-04-27T18:53:24.558Z,7.83
2019-04-27T18:55:59.355Z,8.73
2019-04-27T18:58:24.601Z,9.90
2019-04-27T19:00:53.630Z,9.87
2019-04-27T19:03:22.304Z,7.13
2019-04-27T19:05:51.345Z,5.60
2019-04-27T19:08:20.207Z,6.20
2019-04-27T19:10:51.117Z,4.90
2019-04-27T19:13:20.028Z,6.10
2019-04-27T19:15:48.943Z,7.70
2019-04-27T19:18:18.867Z,7.83
2019-04-27T19:20:48.244Z,8.00
2019-04-27T19:23:18.593Z,8.53
2019-04-27T19:26:09.369Z,8.70
2019-04-27T19:28:58.258Z,9.57
2019-04-27T19:31:33.143Z,9.43
2019-04-27T19:34:02.126Z,10.90
2019-04-27T19:36:31.072Z,10.57
2019-04-27T19:38:59.990Z,12.17
2019-04-27T19:41:29.610Z,11.77
2019-04-27T19:43:59.867Z,11.20
2019-04-27T19:46:30.498Z,12.33
2019-04-27T19:48:59.555Z,11.10
2019-04-27T19:51:28.356Z,11.07
2019-04-27T19:53:58.196Z,11.33
2019-04-27T19:57:44.947Z,10.60
2019-04-27T20:03:45.916Z,10.90
2019-04-27T20:13:55.362Z,10.97
2019-04-27T20:27:46.821Z,8.33
2019-04-27T20:34:57.993Z,8.70
2019-04-27T20:38:41.921Z,10.63
2019-04-27T20:43:51.751Z,11.50
2019-04-27T20:46:22.672Z,12.83
2019-04-27T20:48:51.472Z,11.30
2019-04-27T20:55:53.162Z,11.03
2019-04-27T20:59:21.945Z,11.30
2019-04-27T21:02:10.494Z,11.27
2019-04-27T21:04:53.242Z,11.97
2019-04-27T21:08:03.028Z,11.93
2019-04-27T21:10:51.408Z,12.27
2019-04-27T21:13:22.575Z,12.80
2019-04-27T21:15:57.778Z,13.10
2019-04-27T21:18:32.916Z,14.53
2019-04-27T21:21:28.377Z,15.57
2019-04-27T21:24:05.242Z,14.53
2019-04-27T21:26:39.543Z,14.47
2019-04-27T21:29:11.728Z,18.20
2019-04-27T21:31:44.475Z,16.97
2019-04-27T21:34:14.530Z,17.80
2019-04-27T21:36:43.739Z,17.63
2019-04-27T21:39:12.715Z,18.27
2019-04-27T21:41:41.737Z,18.30
2019-04-27T21:44:11.559Z,18.23
2019-04-27T21:46:41.813Z,19.33
2019-04-27T21:49:12.453Z,19.80
2019-04-27T21:52:01.396Z,16.33
2019-04-27T21:54:32.729Z,18.07
2019-04-27T21:57:01.800Z,18.67
2019-04-27T21:59:30.857Z,18.07
2019-04-27T22:02:02.301Z,18.07
2019-04-27T22:04:31.621Z,17.33
2019-04-27T22:07:01.429Z,17.50
2019-04-27T22:09:30.716Z,19.07
2019-04-27T22:12:00.656Z,17.90
2019-04-27T22:14:30.064Z,20.13
2019-04-27T22:17:00.738Z,20.73
2019-04-27T22:19:31.091Z,20.70
2019-04-27T22:22:01.880Z,21.30
2019-04-27T22:24:36.861Z,21.57
2019-04-27T22:27:05.931Z,19.97
2019-04-27T22:29:34.578Z,20.50
2019-04-27T22:32:03.642Z,22.70
2019-04-27T22:34:32.836Z,22.20
2019-04-27T22:37:02.745Z,24.63
2019-04-27T22:39:52.476Z,25.27
2019-04-27T22:42:52.216Z,23.97
2019-04-27T22:45:24.679Z,24.37
2019-04-27T22:47:53.567Z,22.07
2019-04-27T22:50:22.783Z,24.37
2019-04-27T22:52:51.429Z,22.97
2019-04-27T22:55:21.998Z,22.67
2019-04-27T22:57:56.238Z,22.13
2019-04-27T23:01:01.231Z,22.03
2019-04-27T23:03:33.975Z,23.33
2019-04-27T23:06:02.764Z,22.87
2019-04-27T23:08:31.377Z,24.63
2019-04-27T23:11:00.588Z,23.67
2019-04-27T23:13:30.946Z,23.67
2019-04-27T23:16:01.569Z,22.13
2019-04-27T23:18:31.175Z,22.27
2019-04-27T23:21:01.557Z,21.10
2019-04-27T23:23:31.242Z,21.40
2019-04-27T23:26:01.795Z,20.90
2019-04-27T23:28:31.317Z,22.90
2019-04-27T23:31:06.216Z,23.90
2019-04-27T23:33:35.966Z,25.17
2019-04-27T23:36:04.598Z,24.90
2019-04-27T23:38:33.257Z,23.83
2019-04-27T23:41:02.147Z,24.13
2019-04-27T23:43:31.726Z,24.93
2019-04-27T23:46:01.635Z,24.10
2019-04-27T23:48:32.124Z,24.20
2019-04-27T23:51:10.381Z,24.73
2019-04-27T23:53:41.635Z,25.93
2019-04-27T23:56:10.299Z,27.20
2019-04-27T23:58:39.510Z,28.57
